CheckWX is a tool to help pilots better visualize weather data.  It is not intended as a substitute for an official pre-flight weather briefing.

08:51:49 UTC

EFRO TAF
Rovaniemi Airport
Rovaniemi, Finland
TAF EFRO 190826Z 1909/2009 11009KT CAVOK

May-19@
09:00 UTC

May-19 @ 09:00 UTC

May-20@
09:00 UTC

May-20 @ 09:00 UTC

TAF EFRO 190826Z 1909/2009 11009KT CAVOK
Wind
  • 110° at 9 KTS
Conditions
No significant weather
Cloud Levels
  • No significant clouds